Weather at RAF St. David's [CLOSED]

Public forecast

Using degrees Celsius for public forecast. Weather courtesy of forecast.io.

Closest aviation weather report (METAR) to RAF St. David's

Closest report is Waterford Airport, 71.4 nm (132.3 km) WNW. Retrieved 2021/04/12 15:30 UTC (26 minutes ago):

EIWF 121530Z 25008KT 210V310 9999 FEW025 SCT035 09/05 Q1030

Closest aviation forecast (TAF) to RAF St. David's

Closest forecast is Cardiff International Airport, 75.7 nm (140.2 km) ESE. Retrieved 2021/04/12 12:00 UTC (4 hours ago):

TAF EGFF 121103Z 1212/1312 31010KT 9999 SCT035 PROB40 TEMPO 1212/1219 6000 SHRA BECMG 1215/1218 VRB03KT PROB30 1301/1306 7000 PROB30 TEMPO 1310/1312 8000 SHRA